Time;durP1;ratioP1;P1;durP2;ratioP2;P2;SDS_P1;SDS_P2;PMS_P1;PMS_P2;Temp;Humidity;BMP_temperature;BMP_pressure;BME280_temperature;BME280_humidity;BME280_pressure;Samples;Min_cycle;Max_cycle;Signal;HPM_P1;HPM_P2
2021/10/17 00:01:05;;;;;;;;;19.25;18.25;;;;;14.43;52.08;101667.69;5016579;28;45496;-80
2021/10/17 00:03:31;;;;;;;;;23.75;19.75;;;;;14.54;51.79;101689.00;5017604;28;45303;-82
2021/10/17 00:05:57;;;;;;;;;21.00;19.00;;;;;14.45;52.25;101673.84;5014944;28;45380;-82
2021/10/17 00:08:22;;;;;;;;;20.00;18.75;;;;;14.54;51.91;101681.19;5016357;28;45519;-82
2021/10/17 00:10:48;;;;;;;;;18.75;17.25;;;;;14.51;51.98;101679.34;5015919;28;45681;-82
2021/10/17 00:13:13;;;;;;;;;19.75;19.00;;;;;14.48;52.06;101675.69;5016255;28;45521;-83
2021/10/17 00:15:39;;;;;;;;;23.00;20.25;;;;;14.36;51.80;101652.63;5017241;28;45347;-84
2021/10/17 00:18:07;;;;;;;;;23.50;20.50;;;;;14.47;51.97;101677.41;5016191;28;45566;-81
2021/10/17 00:20:33;;;;;;;;;22.75;21.00;;;;;14.43;52.13;101682.44;5016377;28;45266;-81
2021/10/17 00:22:59;;;;;;;;;24.75;22.50;;;;;14.45;52.25;101683.41;5025580;28;45236;-81
2021/10/17 00:25:25;;;;;;;;;24.00;21.00;;;;;14.38;52.11;101661.41;5027468;28;45304;-83
2021/10/17 00:27:52;;;;;;;;;20.00;17.00;;;;;14.34;52.15;101662.06;5020008;28;45442;-81
2021/10/17 00:30:18;;;;;;;;;21.50;20.00;;;;;14.42;52.43;101676.31;5018671;28;46420;-80
2021/10/17 00:32:44;;;;;;;;;24.00;20.00;;;;;14.23;52.09;101652.09;5018697;28;45323;-82
2021/10/17 00:35:13;;;;;;;;;20.00;19.25;;;;;14.37;52.15;101676.13;5018528;28;45438;-87
2021/10/17 00:37:39;;;;;;;;;22.00;19.25;;;;;14.29;51.91;101664.50;5020613;28;45438;-81
2021/10/17 00:40:08;;;;;;;;;19.50;18.00;;;;;14.33;52.58;101676.84;5021295;28;45346;-80
2021/10/17 00:42:34;;;;;;;;;21.00;19.00;;;;;14.31;52.23;101674.97;5023393;28;45275;-84
2021/10/17 00:45:03;;;;;;;;;26.25;21.75;;;;;14.27;52.34;101680.88;5019213;28;45462;-81
2021/10/17 00:47:29;;;;;;;;;20.25;19.75;;;;;14.28;52.53;101690.47;5020179;28;45557;-85
2021/10/17 00:49:55;;;;;;;;;27.75;21.00;;;;;14.28;52.45;101690.47;5018815;28;45418;-84
2021/10/17 00:52:21;;;;;;;;;20.00;19.75;;;;;14.27;52.55;101681.75;5018310;28;45288;-81
2021/10/17 00:54:48;;;;;;;;;16.75;16.00;;;;;14.04;52.83;101647.78;5018738;28;45481;-82
2021/10/17 00:57:15;;;;;;;;;20.50;18.25;;;;;14.25;53.01;101678.22;5019514;28;45593;-82
2021/10/17 00:59:41;;;;;;;;;24.50;20.50;;;;;14.22;52.74;101676.34;5019222;28;45514;-81
2021/10/17 01:02:07;;;;;;;;;24.50;19.00;;;;;14.20;52.66;101667.56;5018895;28;45370;-81
2021/10/17 01:04:36;;;;;;;;;21.00;18.50;;;;;14.17;52.73;101666.56;5019413;28;45255;-82
2021/10/17 01:07:03;;;;;;;;;21.00;18.50;;;;;14.13;53.16;101662.94;5020327;28;45575;-83
2021/10/17 01:09:29;;;;;;;;;26.75;21.75;;;;;14.07;53.16;101666.16;5017406;28;45362;-83
2021/10/17 01:11:55;;;;;;;;;17.75;17.00;;;;;14.01;52.83;101658.09;5019564;28;45858;-83
2021/10/17 01:14:22;;;;;;;;;22.00;19.00;;;;;14.07;53.33;101676.56;5025666;28;45312;-82
2021/10/17 01:16:50;;;;;;;;;19.75;19.00;;;;;14.04;53.11;101667.75;5021790;28;45382;-81
2021/10/17 01:19:16;;;;;;;;;24.75;21.00;;;;;13.99;52.91;101664.94;5018231;28;45539;-81
2021/10/17 01:21:42;;;;;;;;;19.25;19.00;;;;;13.99;53.56;101675.34;5017916;28;46020;-81
2021/10/17 01:24:09;;;;;;;;;24.50;19.50;;;;;13.98;53.17;101662.28;5016878;28;45380;-82
2021/10/17 01:26:35;;;;;;;;;22.00;20.50;;;;;13.93;53.26;101670.75;5018480;28;45362;-81
2021/10/17 01:29:02;;;;;;;;;17.25;16.00;;;;;13.88;53.39;101671.38;5017570;28;45377;-83
2021/10/17 01:31:36;;;;;;;;;21.00;20.25;;;;;13.80;53.68;101668.41;5017365;28;45782;-81
2021/10/17 01:34:03;;;;;;;;;20.50;19.50;;;;;13.78;53.96;101667.44;5017695;28;45302;-82
2021/10/17 01:36:28;;;;;;;;;19.75;17.75;;;;;13.70;53.70;101669.72;5017851;28;45169;-81
2021/10/17 01:38:54;;;;;;;;;22.25;18.25;;;;;13.60;53.89;101662.31;5017477;28;45911;-82
2021/10/17 01:41:20;;;;;;;;;23.00;21.00;;;;;13.55;54.21;101662.06;5017303;28;45184;-84
2021/10/17 01:43:45;;;;;;;;;23.25;22.50;;;;;13.57;53.91;101662.16;5017945;28;45298;-84
2021/10/17 01:46:11;;;;;;;;;26.25;21.75;;;;;13.50;54.34;101666.19;5033394;28;45338;-83
2021/10/17 01:48:38;;;;;;;;;23.25;19.75;;;;;13.50;54.25;101676.59;5035751;28;45359;-82
2021/10/17 01:51:10;;;;;;;;;24.00;20.25;;;;;13.46;54.21;101665.16;5021477;28;45276;-82
2021/10/17 01:53:43;;;;;;;;;18.50;17.50;;;;;13.49;54.42;101674.81;5019423;28;45326;-81
2021/10/17 01:56:14;;;;;;;;;20.50;19.00;;;;;13.36;54.80;101655.09;5018202;28;45636;-81
2021/10/17 01:58:39;;;;;;;;;20.00;18.00;;;;;13.42;54.42;101673.63;5017899;28;46511;-82
2021/10/17 02:01:05;;;;;;;;;24.50;21.75;;;;;13.17;54.70;101635.13;5022462;28;45395;-81
2021/10/17 02:03:31;;;;;;;;;22.50;20.75;;;;;13.29;54.65;101647.81;5026123;28;45419;-81
2021/10/17 02:05:57;;;;;;;;;23.50;21.00;;;;;13.41;54.62;101670.97;5019565;28;45568;-81
2021/10/17 02:08:23;;;;;;;;;26.50;21.50;;;;;13.30;55.06;101657.41;5017291;28;46472;-82
2021/10/17 02:10:48;;;;;;;;;23.25;22.25;;;;;13.22;55.00;101636.25;5017207;28;45413;-81
2021/10/17 02:13:14;;;;;;;;;22.25;19.00;;;;;13.21;54.86;101638.78;5011866;28;45372;-83
2021/10/17 02:15:40;;;;;;;;;18.00;17.25;;;;;13.35;55.23;101658.53;4997505;28;45597;-83
2021/10/17 02:18:06;;;;;;;;;25.00;21.25;;;;;13.34;54.89;101650.63;4996888;28;46212;-81
2021/10/17 02:20:34;;;;;;;;;20.75;19.75;;;;;13.28;55.08;101636.53;4997281;28;45227;-81
2021/10/17 02:23:01;;;;;;;;;23.50;21.50;;;;;13.36;54.91;101656.81;4997420;28;45571;-82
2021/10/17 02:25:27;;;;;;;;;27.25;22.25;;;;;13.18;54.64;101636.00;4997042;28;45548;-81
2021/10/17 02:27:53;;;;;;;;;25.00;21.75;;;;;13.22;54.70;101641.47;5002296;28;45369;-82
2021/10/17 02:30:19;;;;;;;;;22.50;21.00;;;;;13.26;54.93;101655.50;5016595;28;45335;-83
2021/10/17 02:32:44;;;;;;;;;21.50;20.50;;;;;13.18;54.80;101647.31;5017426;28;45449;-83
2021/10/17 02:35:10;;;;;;;;;22.00;21.50;;;;;13.16;54.75;101657.66;5017059;28;45600;-82
2021/10/17 02:37:35;;;;;;;;;22.75;20.00;;;;;13.20;55.35;101668.19;5018220;28;45710;-82
2021/10/17 02:40:01;;;;;;;;;25.75;22.00;;;;;13.15;55.24;101663.69;5017487;28;45388;-82
2021/10/17 02:42:27;;;;;;;;;21.75;21.25;;;;;13.13;55.44;101662.72;5016438;28;45232;-82
2021/10/17 02:44:52;;;;;;;;;28.50;24.75;;;;;13.10;55.33;101653.88;5016707;28;45358;-82
2021/10/17 02:47:18;;;;;;;;;31.50;25.25;;;;;13.04;55.54;101644.06;5016109;28;45945;-81
2021/10/17 02:49:43;;;;;;;;;27.50;24.00;;;;;13.11;55.47;101656.53;5023581;28;45345;-82
2021/10/17 02:52:09;;;;;;;;;22.50;21.75;;;;;13.13;55.38;101651.41;5024022;28;45324;-82
2021/10/17 02:54:35;;;;;;;;;25.50;24.50;;;;;13.10;55.41;101648.69;5016036;28;45565;-82
2021/10/17 02:57:00;;;;;;;;;21.25;18.00;;;;;13.13;55.26;101643.59;5019738;28;46107;-84
2021/10/17 02:59:26;;;;;;;;;23.00;20.75;;;;;12.98;55.18;101625.56;5023137;28;45426;-86
2021/10/17 03:01:52;;;;;;;;;22.00;21.75;;;;;13.08;55.41;101642.50;5018745;28;45983;-82
2021/10/17 03:04:17;;;;;;;;;28.75;25.00;;;;;13.14;55.77;101656.69;5018064;28;45607;-88
2021/10/17 03:06:43;;;;;;;;;26.00;21.50;;;;;13.16;55.61;101655.06;5016723;28;45370;-82
2021/10/17 03:09:09;;;;;;;;;23.25;21.25;;;;;13.15;55.64;101649.78;5016992;28;45422;-81
2021/10/17 03:11:35;;;;;;;;;25.50;20.00;;;;;13.12;55.45;101639.25;5017054;28;45397;-80
2021/10/17 03:14:02;;;;;;;;;27.00;26.50;;;;;13.15;55.19;101650.69;5017237;28;45554;-83
2021/10/17 03:16:29;;;;;;;;;26.75;23.00;;;;;12.96;55.17;101622.00;5016551;28;45563;-84
2021/10/17 03:18:54;;;;;;;;;25.50;23.00;;;;;13.04;55.95;101645.75;5016882;28;45331;-87
2021/10/17 03:21:20;;;;;;;;;24.25;19.00;;;;;12.90;55.88;101625.22;5016851;28;45522;-86
2021/10/17 03:23:46;;;;;;;;;29.75;24.50;;;;;12.97;55.67;101636.78;5016780;28;45366;-83
2021/10/17 03:26:11;;;;;;;;;25.25;22.00;;;;;12.94;55.87;101636.66;5015910;28;45859;-85
2021/10/17 03:28:37;;;;;;;;;28.50;22.25;;;;;12.93;55.78;101643.53;5016230;28;45368;-83
2021/10/17 03:31:06;;;;;;;;;24.75;23.00;;;;;12.77;55.80;101604.66;5018112;28;45489;-83
2021/10/17 03:33:32;;;;;;;;;25.00;21.50;;;;;12.92;55.94;101626.16;5019014;28;45371;-82
2021/10/17 03:35:57;;;;;;;;;22.00;18.00;;;;;12.88;56.02;101615.53;5020096;28;45547;-88
2021/10/17 03:38:23;;;;;;;;;29.75;27.00;;;;;12.88;55.75;101606.06;5025496;28;45348;-87
2021/10/17 03:40:49;;;;;;;;;21.75;19.25;;;;;13.00;55.90;101631.72;5024399;28;45343;-88
2021/10/17 03:43:15;;;;;;;;;22.25;21.75;;;;;12.90;55.76;101617.44;5040453;28;45262;-82
2021/10/17 03:45:40;;;;;;;;;23.75;22.75;;;;;12.88;55.79;101607.75;5029129;28;46010;-87
2021/10/17 03:48:07;;;;;;;;;20.25;19.50;;;;;12.76;56.14;101600.25;5018946;28;45360;-87
2021/10/17 03:50:33;;;;;;;;;29.25;24.75;;;;;12.76;56.11;101595.06;5017090;28;45378;-86
2021/10/17 03:52:59;;;;;;;;;25.75;23.75;;;;;12.83;56.21;101610.13;5018831;28;45153;-86
2021/10/17 03:55:25;;;;;;;;;25.25;24.00;;;;;12.77;56.18;101604.66;5016967;28;45416;-88
2021/10/17 03:57:50;;;;;;;;;19.75;19.00;;;;;12.81;56.18;101615.25;5019946;28;45319;-87
2021/10/17 04:00:16;;;;;;;;;25.75;23.25;;;;;12.69;56.18;101602.53;5020406;28;45386;-88
2021/10/17 04:02:42;;;;;;;;;30.00;24.00;;;;;12.72;56.15;101626.91;5021669;28;45534;-86
2021/10/17 04:05:08;;;;;;;;;27.75;24.00;;;;;12.59;56.63;101602.91;5019847;28;46069;-87
2021/10/17 04:07:38;;;;;;;;;28.00;23.50;;;;;12.67;56.63;101617.19;5018461;28;45845;-87
2021/10/17 04:10:05;;;;;;;;;25.75;24.00;;;;;12.65;56.51;101612.72;5019608;28;45331;-87
2021/10/17 04:12:31;;;;;;;;;29.00;25.50;;;;;12.62;56.55;101604.78;5035364;28;45442;-83
2021/10/17 04:14:56;;;;;;;;;23.75;23.75;;;;;12.71;56.27;101615.63;5018994;28;45357;-84
2021/10/17 04:17:23;;;;;;;;;28.00;26.50;;;;;12.66;56.29;101611.91;5018716;28;45224;-84
2021/10/17 04:19:49;;;;;;;;;30.00;25.25;;;;;12.62;56.56;101610.84;5017464;28;45348;-82
2021/10/17 04:22:15;;;;;;;;;24.00;22.75;;;;;12.60;56.69;101617.69;5020324;28;45438;-83
2021/10/17 04:24:40;;;;;;;;;26.00;23.00;;;;;12.55;56.74;101606.19;5025742;28;45911;-82
2021/10/17 04:27:08;;;;;;;;;30.25;26.00;;;;;12.54;56.57;101609.59;5023680;28;45277;-82
2021/10/17 04:29:38;;;;;;;;;27.00;24.75;;;;;12.55;57.02;101616.59;5025394;28;45347;-83
2021/10/17 04:32:04;;;;;;;;;30.00;25.50;;;;;12.56;57.22;101628.75;5020284;28;45533;-81
2021/10/17 04:34:30;;;;;;;;;26.00;22.50;;;;;12.51;57.10;101614.63;5018427;28;45994;-82
2021/10/17 04:36:56;;;;;;;;;33.25;27.75;;;;;12.59;57.04;101622.81;5018803;28;45300;-81
2021/10/17 04:39:22;;;;;;;;;33.00;27.00;;;;;12.44;56.80;101596.97;5018665;28;45508;-81
2021/10/17 04:41:48;;;;;;;;;31.50;28.75;;;;;12.55;56.75;101624.38;5020061;28;45343;-84
2021/10/17 04:44:14;;;;;;;;;31.00;26.50;;;;;12.55;57.31;101624.38;5018606;28;46106;-84
2021/10/17 04:46:39;;;;;;;;;24.50;20.75;;;;;12.47;56.64;101615.31;5019352;28;45423;-83
2021/10/17 04:49:05;;;;;;;;;26.75;26.75;;;;;12.50;57.54;101628.44;5018348;28;45338;-84
2021/10/17 04:51:30;;;;;;;;;23.25;20.25;;;;;12.45;57.46;101619.53;5019397;28;45170;-87
2021/10/17 04:53:56;;;;;;;;;26.75;25.25;;;;;12.33;57.08;101610.31;5021726;28;46503;-83
2021/10/17 04:56:22;;;;;;;;;26.75;25.00;;;;;12.32;57.10;101618.91;5022204;28;45405;-84
2021/10/17 04:58:48;;;;;;;;;26.25;26.00;;;;;12.16;57.58;101595.56;5024494;28;45431;-84
2021/10/17 05:01:13;;;;;;;;;25.75;22.00;;;;;12.34;57.22;101631.97;5022494;28;45310;-88
2021/10/17 05:03:39;;;;;;;;;25.25;22.75;;;;;12.33;57.35;101630.19;5023660;28;45537;-85
2021/10/17 05:06:05;;;;;;;;;29.25;26.75;;;;;12.24;57.55;101615.03;5022486;28;45433;-86
2021/10/17 05:08:32;;;;;;;;;25.25;24.25;;;;;12.35;57.45;101629.47;5021381;28;46053;-87
2021/10/17 05:10:58;;;;;;;;;28.00;25.00;;;;;12.23;57.50;101602.88;5028720;28;45585;-82
2021/10/17 05:13:23;;;;;;;;;27.50;26.00;;;;;12.32;57.41;101618.91;5027442;28;46667;-84
2021/10/17 05:15:49;;;;;;;;;27.00;23.00;;;;;12.28;57.80;101605.69;5038157;28;45332;-83
2021/10/17 05:18:14;;;;;;;;;28.00;25.25;;;;;12.26;57.95;101596.94;5021878;28;45182;-84
2021/10/17 05:20:40;;;;;;;;;25.25;23.50;;;;;12.43;57.55;101627.22;5019876;28;45384;-87
2021/10/17 05:23:06;;;;;;;;;29.25;26.25;;;;;12.45;57.36;101622.13;5019643;28;46124;-86
2021/10/17 05:25:34;;;;;;;;;28.00;26.25;;;;;12.41;57.30;101618.50;5035271;28;45380;-85
2021/10/17 05:28:00;;;;;;;;;25.75;25.75;;;;;12.30;57.34;101597.16;5019755;28;45313;-84
2021/10/17 05:30:26;;;;;;;;;27.75;25.75;;;;;12.54;57.24;101638.19;5019971;28;45517;-84
2021/10/17 05:32:51;;;;;;;;;27.00;25.50;;;;;12.56;57.58;101635.63;5016032;28;47057;-87
2021/10/17 05:35:17;;;;;;;;;30.00;27.50;;;;;12.36;57.62;101594.84;4999549;28;45265;-86
2021/10/17 05:37:42;;;;;;;;;25.00;22.50;;;;;12.61;57.18;101631.56;4998177;28;45683;-87
2021/10/17 05:40:08;;;;;;;;;27.00;23.50;;;;;12.50;57.19;101618.03;4999605;28;45559;-83
2021/10/17 05:42:34;;;;;;;;;32.25;30.50;;;;;12.39;57.15;101610.59;4999114;28;46364;-84
2021/10/17 05:44:59;;;;;;;;;32.75;26.75;;;;;12.26;57.14;101603.00;4998810;28;45277;-84
2021/10/17 05:47:25;;;;;;;;;36.00;32.25;;;;;12.26;57.61;101618.59;4999017;28;45380;-86
2021/10/17 05:49:51;;;;;;;;;28.50;27.25;;;;;12.22;57.68;101622.72;4998181;28;45463;-87
2021/10/17 05:52:16;;;;;;;;;34.00;30.25;;;;;12.28;57.94;101635.13;5000250;28;45443;-85
2021/10/17 05:54:42;;;;;;;;;29.25;26.00;;;;;12.35;57.53;101642.44;5000594;28;45256;-83
2021/10/17 05:57:07;;;;;;;;;25.25;25.00;;;;;12.34;57.78;101635.47;5009319;28;45301;-84
2021/10/17 05:59:36;;;;;;;;;29.00;25.75;;;;;12.33;57.56;101649.25;5024332;28;45460;-82
2021/10/17 06:02:04;;;;;;;;;32.75;28.00;;;;;12.18;57.63;101631.19;5020109;28;46476;-83
2021/10/17 06:04:30;;;;;;;;;30.00;28.50;;;;;12.11;57.35;101605.72;5018555;28;45871;-83
2021/10/17 06:06:56;;;;;;;;;42.50;35.00;;;;;12.16;57.71;101624.13;5033828;28;45450;-84
2021/10/17 06:09:21;;;;;;;;;36.75;34.00;;;;;12.26;57.70;101635.88;5034240;28;45573;-84
2021/10/17 06:11:47;;;;;;;;;38.50;32.25;;;;;12.22;57.48;101635.72;5017807;28;46510;-84
2021/10/17 06:14:12;;;;;;;;;32.75;29.00;;;;;12.23;57.70;101649.59;5033379;28;45328;-83
2021/10/17 06:16:38;;;;;;;;;34.75;30.25;;;;;12.22;57.72;101656.47;5038341;28;45463;-92
2021/10/17 06:19:04;;;;;;;;;35.50;30.75;;;;;12.08;57.48;101635.00;5035431;28;45584;-89
2021/10/17 06:21:29;;;;;;;;;39.75;33.25;;;;;12.18;57.68;101657.16;5020602;28;46000;-93
2021/10/17 06:23:55;;;;;;;;;43.50;34.50;;;;;12.18;57.95;101656.25;5021297;28;45398;-92
2021/10/17 06:26:21;;;;;;;;;37.50;30.75;;;;;11.93;57.66;101614.31;5019050;28;45334;-83
2021/10/17 06:28:47;;;;;;;;;40.50;33.50;;;;;12.11;57.70;101652.44;5017863;28;45440;-83
2021/10/17 06:31:12;;;;;;;;;31.25;28.25;;;;;12.01;57.68;101639.78;5017869;28;45561;-83
2021/10/17 06:33:38;;;;;;;;;38.50;31.25;;;;;11.84;57.83;101612.94;5017174;28;45246;-83
2021/10/17 06:36:04;;;;;;;;;33.00;29.25;;;;;12.05;57.72;101652.13;5017896;28;45429;-83
2021/10/17 06:38:29;;;;;;;;;38.75;33.00;;;;;11.97;57.83;101650.81;5018090;28;45204;-83
2021/10/17 06:40:55;;;;;;;;;37.25;29.00;;;;;12.05;58.01;101678.09;5023437;28;46138;-83
2021/10/17 06:43:20;;;;;;;;;40.25;34.00;;;;;11.80;57.97;101636.94;5024211;28;45300;-78
2021/10/17 06:45:46;;;;;;;;;36.75;32.00;;;;;11.96;58.25;101674.97;5037338;28;45347;-79
2021/10/17 06:48:12;;;;;;;;;33.75;29.75;;;;;11.97;58.15;101684.56;5017774;28;45478;-79
2021/10/17 06:50:37;;;;;;;;;30.75;30.50;;;;;11.90;58.16;101681.59;5016918;28;46001;-79
2021/10/17 06:53:03;;;;;;;;;29.75;27.75;;;;;11.91;58.62;101687.72;5016739;28;45410;-80
2021/10/17 06:55:28;;;;;;;;;43.00;37.25;;;;;11.93;58.75;101688.69;5017692;28;45308;-82
2021/10/17 06:57:54;;;;;;;;;34.25;28.75;;;;;11.93;58.48;101689.56;5017923;28;45268;-86
2021/10/17 07:00:20;;;;;;;;;31.00;30.00;;;;;11.93;58.27;101680.91;5016017;28;45881;-82
2021/10/17 07:02:45;;;;;;;;;41.00;32.25;;;;;11.99;58.28;101689.03;5019492;28;45294;-82
2021/10/17 07:05:11;;;;;;;;;30.00;26.50;;;;;12.02;58.19;101697.00;5018721;28;45466;-83
2021/10/17 07:07:37;;;;;;;;;30.75;27.25;;;;;11.98;58.24;101691.56;5016896;28;45549;-82
2021/10/17 07:10:03;;;;;;;;;34.00;30.25;;;;;11.95;58.18;101676.66;5016792;28;46106;-85
2021/10/17 07:12:29;;;;;;;;;28.75;28.00;;;;;12.12;57.84;101697.47;5014834;28;45667;-78
2021/10/17 07:14:54;;;;;;;;;31.25;28.00;;;;;12.15;57.96;101697.66;5017251;28;45276;-84
2021/10/17 07:17:22;;;;;;;;;29.50;28.25;;;;;12.04;57.83;101674.59;5019111;28;45341;-85
2021/10/17 07:19:48;;;;;;;;;29.25;29.00;;;;;12.18;57.62;101692.59;5020607;28;45268;-84
2021/10/17 07:22:14;;;;;;;;;30.50;28.75;;;;;12.10;57.66;101684.41;5033356;28;45432;-88
2021/10/17 07:24:40;;;;;;;;;29.00;25.75;;;;;12.04;57.79;101679.78;5019827;28;45372;-82
2021/10/17 07:27:05;;;;;;;;;34.25;27.75;;;;;11.95;57.39;101658.50;5036334;28;45453;-88
2021/10/17 07:29:31;;;;;;;;;31.25;30.00;;;;;12.17;57.78;101694.31;5019679;28;46284;-84
2021/10/17 07:31:57;;;;;;;;;38.25;33.00;;;;;12.22;57.97;101702.34;5022462;28;46055;-83
2021/10/17 07:34:23;;;;;;;;;32.50;29.50;;;;;12.08;57.89;101676.53;5009074;28;45448;-80
2021/10/17 07:36:49;;;;;;;;;35.25;31.00;;;;;12.25;58.09;101694.72;5019954;28;45332;-80
2021/10/17 07:39:14;;;;;;;;;32.75;29.00;;;;;12.20;58.22;101686.66;5022659;28;46133;-88
2021/10/17 07:41:46;;;;;;;;;30.75;28.00;;;;;12.36;57.38;101708.25;5026754;28;45363;-82
2021/10/17 07:44:12;;;;;;;;;32.50;31.75;;;;;12.30;57.51;101706.22;5023777;28;45451;-78
2021/10/17 07:46:38;;;;;;;;;32.00;26.75;;;;;12.24;57.27;101700.72;5018103;28;45458;-76
2021/10/17 07:49:03;;;;;;;;;33.75;31.00;;;;;12.30;57.57;101703.63;5019577;28;45468;-78
2021/10/17 07:51:29;;;;;;;;;36.25;34.25;;;;;12.38;57.81;101707.50;5019770;28;45234;-81
2021/10/17 07:53:55;;;;;;;;;36.25;33.50;;;;;12.52;57.62;101707.34;5019322;28;45366;-76
2021/10/17 07:56:21;;;;;;;;;40.75;34.00;;;;;12.57;57.34;101699.78;5019564;28;45639;-78
2021/10/17 07:58:46;;;;;;;;;41.75;34.25;;;;;12.76;57.23;101699.88;5018405;28;46056;-78
2021/10/17 08:01:12;;;;;;;;;34.75;31.75;;;;;12.84;56.86;101695.06;5018818;28;45235;-80
2021/10/17 08:03:38;;;;;;;;;46.25;36.25;;;;;12.96;56.96;101707.78;5018263;28;45391;-78
2021/10/17 08:06:04;;;;;;;;;37.50;31.75;;;;;12.98;56.04;101698.34;5017903;28;45644;-83
2021/10/17 08:08:30;;;;;;;;;33.50;30.50;;;;;13.03;56.18;101699.47;5018000;28;45473;-79
2021/10/17 08:10:56;;;;;;;;;56.75;43.75;;;;;13.08;56.79;101690.19;5018171;28;45585;-79
2021/10/17 08:13:21;;;;;;;;;33.75;31.25;;;;;13.12;56.01;101694.72;4998852;28;45454;-78
2021/10/17 08:15:47;;;;;;;;;40.00;33.75;;;;;13.12;56.30;101699.03;4999682;28;46039;-78
2021/10/17 08:18:13;;;;;;;;;33.75;28.75;;;;;13.15;56.08;101688.78;4999371;28;46002;-80
2021/10/17 08:20:39;;;;;;;;;43.50;34.25;;;;;13.22;56.05;101695.16;5015871;28;45506;-80
2021/10/17 08:23:06;;;;;;;;;40.50;33.50;;;;;13.24;56.33;101693.53;5018019;28;45692;-80
2021/10/17 08:25:32;;;;;;;;;37.00;34.00;;;;;13.38;55.92;101702.00;5019011;28;45276;-79
2021/10/17 08:27:59;;;;;;;;;52.75;42.25;;;;;13.38;56.19;101699.38;5018552;28;46462;-80
2021/10/17 08:30:26;;;;;;;;;42.75;35.75;;;;;13.48;56.01;101706.84;5018242;28;45501;-80
2021/10/17 08:32:52;;;;;;;;;37.50;32.75;;;;;13.53;55.56;101691.44;5018496;28;45367;-80
2021/10/17 08:35:17;;;;;;;;;34.25;31.50;;;;;13.48;55.70;101669.53;5018811;28;45356;-80
2021/10/17 08:37:43;;;;;;;;;27.75;27.50;;;;;13.65;55.46;101680.75;5033228;28;45569;-80
2021/10/17 08:40:10;;;;;;;;;38.50;30.75;;;;;13.72;55.13;101678.47;5018279;28;45847;-79
2021/10/17 08:42:36;;;;;;;;;26.75;23.50;;;;;13.79;54.65;101687.44;5017794;28;45340;-79
2021/10/17 08:45:04;;;;;;;;;27.25;24.00;;;;;13.86;54.75;101679.13;5017721;28;45277;-79
2021/10/17 08:47:32;;;;;;;;;28.50;24.25;;;;;13.95;53.70;101682.94;5017789;28;45504;-80
2021/10/17 08:49:57;;;;;;;;;33.25;29.00;;;;;13.98;53.38;101683.09;5017599;28;45644;-78
2021/10/17 08:52:23;;;;;;;;;26.00;23.25;;;;;13.93;53.32;101673.34;5018977;28;45188;-78
2021/10/17 08:54:49;;;;;;;;;29.75;25.00;;;;;13.92;53.31;101670.69;5021408;28;45189;-81
2021/10/17 08:57:15;;;;;;;;;25.75;23.75;;;;;14.01;52.89;101691.94;5024336;28;45287;-79
2021/10/17 08:59:48;;;;;;;;;29.50;27.50;;;;;14.02;53.12;101680.69;5019039;28;45354;-79
2021/10/17 09:02:21;;;;;;;;;27.25;24.50;;;;;14.12;52.69;101695.00;5020438;28;45215;-77
2021/10/17 09:05:06;;;;;;;;;29.75;26.75;;;;;14.09;52.75;101681.88;5018988;28;45462;-83
2021/10/17 09:07:32;;;;;;;;;22.25;21.25;;;;;14.19;52.13;101686.66;5020388;28;46260;-74
2021/10/17 09:10:10;;;;;;;;;24.25;20.75;;;;;14.13;51.84;101675.94;5019856;28;45430;-77
2021/10/17 09:12:37;;;;;;;;;26.00;23.75;;;;;14.23;51.89;101685.94;5018956;28;45474;-81
2021/10/17 09:15:25;;;;;;;;;26.25;22.00;;;;;14.19;51.65;101673.63;5018592;28;45575;-85
2021/10/17 09:18:15;;;;;;;;;22.00;21.00;;;;;14.29;51.64;101690.53;5016984;28;45550;-79
2021/10/17 09:20:47;;;;;;;;;24.00;23.00;;;;;14.33;51.80;101683.75;5016839;28;45330;-80
2021/10/17 09:23:32;;;;;;;;;22.75;22.75;;;;;14.37;51.78;101685.66;5019479;28;45235;-79
2021/10/17 09:26:05;;;;;;;;;22.75;21.75;;;;;14.40;51.62;101685.81;5018657;28;45466;-79
2021/10/17 09:28:32;;;;;;;;;36.50;32.25;;;;;14.35;50.79;101667.38;5017712;28;45399;-79
2021/10/17 09:31:03;;;;;;;;;26.25;22.75;;;;;14.45;50.14;101679.06;5017223;28;45409;-77
2021/10/17 09:33:30;;;;;;;;;22.75;20.75;;;;;14.41;49.75;101677.16;5017430;28;45414;-77
2021/10/17 09:35:56;;;;;;;;;27.00;22.75;;;;;14.45;50.18;101675.59;5018386;28;45575;-81
2021/10/17 09:38:34;;;;;;;;;26.75;23.75;;;;;14.41;50.97;101666.75;5018036;28;46139;-84
2021/10/17 09:41:18;;;;;;;;;20.25;19.00;;;;;14.47;49.55;101671.34;5018934;28;45254;-77
2021/10/17 09:43:55;;;;;;;;;24.75;21.50;;;;;14.49;50.14;101674.88;5017685;28;45377;-81
2021/10/17 09:46:21;;;;;;;;;21.25;21.00;;;;;14.55;50.69;101676.03;5018549;28;45358;-78
2021/10/17 09:48:47;;;;;;;;;27.25;24.00;;;;;14.62;50.61;101677.19;5018381;28;46513;-80
2021/10/17 09:51:16;;;;;;;;;25.75;24.25;;;;;14.69;49.57;101666.19;5018005;28;45965;-79
2021/10/17 09:53:44;;;;;;;;;21.25;21.00;;;;;14.76;49.72;101675.16;5017292;28;45353;-79
2021/10/17 09:56:26;;;;;;;;;25.75;22.25;;;;;14.77;49.62;101660.44;5017458;28;45586;-78
2021/10/17 09:58:55;;;;;;;;;20.00;19.50;;;;;14.87;48.81;101670.41;5017574;28;46196;-85
2021/10/17 10:01:25;;;;;;;;;32.25;26.00;;;;;14.98;49.04;101676.06;5016794;28;45916;-79
2021/10/17 10:03:56;;;;;;;;;23.25;21.25;;;;;15.01;48.96;101668.38;5017456;28;45382;-78
2021/10/17 10:06:22;;;;;;;;;47.50;36.00;;;;;15.05;48.08;101671.97;5016959;28;45450;-79
2021/10/17 10:08:51;;;;;;;;;20.50;19.75;;;;;15.07;48.53;101676.41;5014974;28;47159;-79
2021/10/17 10:11:22;;;;;;;;;21.50;21.00;;;;;15.11;48.52;101677.47;5016923;28;45848;-80
2021/10/17 10:13:51;;;;;;;;;21.00;20.25;;;;;15.11;48.55;101667.03;5016544;28;45531;-79
2021/10/17 10:16:22;;;;;;;;;24.50;22.00;;;;;15.13;48.72;101666.25;5015901;28;45757;-76
2021/10/17 10:18:51;;;;;;;;;24.25;20.75;;;;;15.11;48.87;101652.25;5015055;28;45243;-78
2021/10/17 10:21:17;;;;;;;;;19.25;19.25;;;;;15.16;47.24;101652.44;5016197;28;45456;-80
2021/10/17 10:23:43;;;;;;;;;26.50;23.25;;;;;15.28;47.90;101665.09;5016057;28;45422;-81
2021/10/17 10:26:10;;;;;;;;;25.25;23.00;;;;;15.36;47.78;101674.09;5014541;28;45927;-79
2021/10/17 10:28:39;;;;;;;;;29.75;26.75;;;;;15.42;48.04;101671.72;5015293;28;46576;-77
2021/10/17 10:31:05;;;;;;;;;25.50;22.00;;;;;15.48;47.04;101671.97;5021982;28;45509;-78
2021/10/17 10:33:42;;;;;;;;;21.00;19.25;;;;;15.52;47.00;101653.78;5020945;28;45396;-80
2021/10/17 10:36:10;;;;;;;;;17.00;17.00;;;;;15.55;46.11;101649.56;5019744;28;45359;-87
2021/10/17 10:38:53;;;;;;;;;37.25;29.75;;;;;15.65;47.52;101657.78;5016731;28;46145;-81
2021/10/17 10:41:28;;;;;;;;;53.25;42.75;;;;;15.69;46.78;101659.66;5017036;28;45313;-81
2021/10/17 10:44:34;;;;;;;;;23.25;20.00;;;;;15.68;45.79;101635.28;5017050;28;45244;-79
2021/10/17 10:47:26;;;;;;;;;19.50;16.50;;;;;15.82;45.22;101648.84;5016292;28;45542;-77
2021/10/17 10:49:55;;;;;;;;;23.50;21.25;;;;;15.88;46.15;101658.66;5016391;28;45406;-86
2021/10/17 10:52:23;;;;;;;;;18.50;16.50;;;;;15.92;45.97;101650.09;5015463;28;45531;-87
2021/10/17 10:54:50;;;;;;;;;13.00;11.50;;;;;15.97;44.93;101655.50;5015265;28;45438;-75
2021/10/17 10:57:24;;;;;;;;;19.75;17.25;;;;;15.93;45.12;101642.31;5017846;28;45469;-89
2021/10/17 11:00:05;;;;;;;;;18.00;14.75;;;;;15.91;44.89;101635.28;5018049;28;45488;-82
2021/10/17 11:03:06;;;;;;;;;18.00;18.00;;;;;16.01;44.47;101658.28;5024508;28;45273;-90
2021/10/17 11:05:31;;;;;;;;;19.00;18.00;;;;;15.96;43.95;101636.31;5029012;28;45420;-90
2021/10/17 11:08:12;;;;;;;;;8.00;4.00;;;;;16.07;44.49;101655.00;5037213;28;45403;-86
2021/10/17 11:10:43;;;;;;;;;20.75;17.00;;;;;16.11;44.51;101655.97;5038212;28;47257;-94